Pos First Name Last Name YOB Country Start
Num
Time Run T1 Bike T2 Run
1 Sandrina Illes 1986 AUT 71 01:49:29 00:31:01 00:00:46 01:02:23 00:00:45 00:14:34
2 Ai Ueda 1983 JPN 75 01:49:38 00:31:00 00:00:50 01:02:18 00:00:50 00:14:40
3 Georgina Schwiening 1994 GBR 74 01:49:47 00:31:01 00:00:45 01:02:25 00:00:42 00:14:54
4 Felicity Sheedy-Ryan 1985 AUS 73 01:50:20 00:31:00 00:00:49 01:02:20 00:00:50 00:15:21
5 Sandra Levenez 1979 FRA 76 01:50:42 00:31:17 00:00:49 01:02:03 00:00:54 00:15:39
6 Melanie Maurer 1988 SUI 72 01:51:45 00:32:30 00:00:54 01:02:01 00:00:56 00:15:24
7 Gillian Sanders 1981 RSA 90 01:51:48 00:32:29 00:00:54 01:02:03 00:00:55 00:15:27
8 Lesley Smit 1989 NED 82 01:51:58 00:32:44 00:00:52 01:01:50 00:00:53 00:15:39
9 Jony Heerink 1986 NED 88 01:52:19 00:32:44 00:00:50 01:01:47 00:00:47 00:16:11
10 Garance Blaut 1991 FRA 83 01:52:21 00:31:45 00:00:51 01:03:39 00:00:48 00:15:18
11 Marion Legrand 1992 FRA 86 01:52:41 00:32:07 00:00:48 01:03:18 00:00:45 00:15:43
12 Lucie Picard 1996 FRA 101 01:54:25 00:31:45 00:00:53 01:05:36 00:00:54 00:15:17
13 Jenny Nilsson 1987 SWE 85 01:54:34 00:33:42 00:00:53 01:02:50 00:00:50 00:16:19
14 Sophie Van Der Most 1995 NED 103 01:54:43 00:33:52 00:00:53 01:02:42 00:00:48 00:16:28
15 Hikari Tamura 1997 JPN 105 01:55:10 00:33:52 00:00:47 01:02:49 00:00:56 00:16:46
16 Ana Filipa Santos 1981 POR 80 01:59:46 00:33:51 00:01:11 01:07:20 00:00:59 00:16:25
17 Yulia Surikova 1982 RUS 78 02:00:07 00:34:34 00:01:01 01:06:50 00:00:56 00:16:46
18 Ulrike Schwalbe 1978 GER 84 02:00:32 00:34:35 00:01:01 01:06:51 00:01:00 00:17:05
19 Guadalupe Jazmin Aguilar Corona 1987 MEX 79 02:01:03 00:32:40 00:00:53 01:08:51 00:00:54 00:17:45
20 Melissa Paauwe 1984 CAN 77 02:02:52 00:34:52 00:01:09 01:07:55 00:01:12 00:17:44
LAP Ciara Wilson 1990 IRL 87 LAP 00:35:53 00:00:57 00:00:00 00:00:00 00:00:00
LAP Sayu Arizono 1996 JPN 102 LAP 00:41:04 00:01:03 00:00:00 00:00:00 00:00:00
LAP Mami Tateoka 1996 JPN 106 LAP 00:37:24 00:00:54 00:00:00 00:00:00 00:00:00
DSQ Petra Eggenschwiler 1988 SUI 81 DSQ 00:33:00 00:00:56 01:01:31 00:00:55 00:00:00
DNF Laura Smith 1995 GBR 104 DNF 00:35:31 00:01:05 00:00:00 00:00:00 00:00:00
DNF Courtney Winterbauer 1993 USA 89 DNF 00:00:00 00:00:00 00:00:00 00:00:00 00:00:00
Program notes:

Technical Delegate: Duncan Hough/GBR. Head Referee: Juliet Fahey/NZL - Competition Jury: Duncan Hough/GBR, Barry Siff/USA, Morten Fenger/DEN.
Distances: Run 9.5km (5 laps), Bike 37.8km (6 laps), Run 4.5km (2 laps).
Air temperature: 25.7C; Humidity : 27.5%.
Athlete #80 Santos/POR served a 15 second penalty at T1 and athlete #77 Paauwe/CAN served a 15 seconds penalty during the 2nd run segment.
Athlete #81 Eggenschwiler/SUI was disqualified because she didn’t stop at the penalty box.